createdAt,value
2019-03-22T00:03:24.738Z,56.30
2019-03-22T00:06:06.266Z,56.30
2019-03-22T00:08:47.750Z,56.30
2019-03-22T00:11:29.131Z,56.30
2019-03-22T00:14:10.611Z,56.30
2019-03-22T00:16:51.241Z,56.30
2019-03-22T00:19:32.860Z,56.30
2019-03-22T00:22:13.690Z,56.30
2019-03-22T00:24:55.128Z,56.20
2019-03-22T00:27:36.603Z,56.30
2019-03-22T00:30:17.438Z,56.30
2019-03-22T00:32:58.199Z,56.30
2019-03-22T00:35:39.099Z,56.30
2019-03-22T00:38:20.675Z,56.30
2019-03-22T00:41:01.274Z,56.30
2019-03-22T00:43:42.029Z,56.30
2019-03-22T00:46:23.527Z,56.30
2019-03-22T00:49:04.883Z,56.40
2019-03-22T00:51:45.629Z,56.30
2019-03-22T00:54:27.357Z,56.30
2019-03-22T00:57:08.302Z,56.30
2019-03-22T00:59:49.406Z,56.30
2019-03-22T01:02:30.379Z,56.30
2019-03-22T01:05:11.419Z,56.30
2019-03-22T01:07:52.670Z,56.40
2019-03-22T01:10:33.556Z,56.30
2019-03-22T01:13:14.388Z,56.30
2019-03-22T01:15:55.091Z,56.30
2019-03-22T01:18:36.534Z,56.30
2019-03-22T01:21:17.467Z,56.30
2019-03-22T01:23:59.994Z,56.30
2019-03-22T01:26:41.287Z,56.30
2019-03-22T01:29:22.879Z,56.30
2019-03-22T01:32:04.440Z,56.30
2019-03-22T01:34:45.257Z,56.30
2019-03-22T01:37:25.865Z,56.30
2019-03-22T01:40:06.654Z,56.30
2019-03-22T01:42:48.280Z,56.30
2019-03-22T01:45:28.970Z,56.30
2019-03-22T01:48:09.739Z,56.30
2019-03-22T01:50:50.572Z,56.30
2019-03-22T01:53:31.753Z,56.30
2019-03-22T01:56:13.214Z,56.30
2019-03-22T01:58:54.830Z,56.30
2019-03-22T02:01:55.291Z,56.30
2019-03-22T02:04:36.079Z,56.30
2019-03-22T02:07:17.641Z,56.20
2019-03-22T02:09:58.535Z,56.30
2019-03-22T02:12:39.367Z,56.20
2019-03-22T02:15:20.056Z,56.30
2019-03-22T02:18:01.609Z,56.20
2019-03-22T02:20:42.411Z,56.30
2019-03-22T02:23:23.130Z,56.20
2019-03-22T02:26:04.518Z,56.30
2019-03-22T02:28:46.072Z,56.30
2019-03-22T02:31:26.791Z,56.20
2019-03-22T02:34:07.912Z,56.30
2019-03-22T02:36:49.137Z,56.30
2019-03-22T02:39:30.691Z,56.30
2019-03-22T02:42:11.466Z,56.30
2019-03-22T02:44:52.260Z,56.30
2019-03-22T02:47:33.043Z,56.30
2019-03-22T02:50:18.773Z,56.30
2019-03-22T02:52:56.968Z,56.20
2019-03-22T02:55:37.627Z,56.30
2019-03-22T02:58:20.991Z,56.30
2019-03-22T03:01:00.786Z,56.30
2019-03-22T03:03:41.642Z,56.30
2019-03-22T03:06:22.713Z,56.30
2019-03-22T03:09:04.688Z,56.30
2019-03-22T03:11:46.090Z,56.30
2019-03-22T03:14:27.556Z,56.30
2019-03-22T03:17:08.333Z,56.30
2019-03-22T03:19:49.861Z,56.30
2019-03-22T03:22:30.545Z,56.20
2019-03-22T03:25:11.918Z,56.30
2019-03-22T03:27:52.670Z,56.20
2019-03-22T03:30:33.335Z,56.20
2019-03-22T03:33:14.895Z,56.10
2019-03-22T03:35:55.695Z,56.20
2019-03-22T03:38:37.045Z,56.20
2019-03-22T03:41:18.716Z,56.20
2019-03-22T03:44:00.323Z,56.20
2019-03-22T03:46:41.869Z,56.20
2019-03-22T03:49:22.526Z,56.20
2019-03-22T03:52:04.113Z,56.20
2019-03-22T03:54:44.866Z,56.20
2019-03-22T03:57:26.087Z,56.20
2019-03-22T04:00:06.823Z,56.20
2019-03-22T04:02:47.692Z,56.20
2019-03-22T04:05:28.649Z,56.20
2019-03-22T04:08:10.241Z,56.20
2019-03-22T04:10:51.861Z,56.20
2019-03-22T04:13:33.330Z,56.20
2019-03-22T04:16:15.027Z,56.20
2019-03-22T04:18:56.167Z,56.20
2019-03-22T04:21:37.407Z,56.20
2019-03-22T04:24:18.951Z,56.20
2019-03-22T04:26:59.712Z,56.20
2019-03-22T04:29:41.069Z,56.20
2019-03-22T04:32:22.520Z,56.10
2019-03-22T04:35:03.383Z,56.20
2019-03-22T04:37:44.872Z,56.20
2019-03-22T04:40:26.318Z,56.20
2019-03-22T04:43:07.170Z,56.10
2019-03-22T04:45:48.639Z,56.10
2019-03-22T04:48:29.327Z,56.20
2019-03-22T04:51:10.087Z,56.20
2019-03-22T04:53:51.779Z,56.20
2019-03-22T04:56:33.268Z,56.10
2019-03-22T04:59:19.212Z,56.10
2019-03-22T05:01:57.316Z,56.20
2019-03-22T05:04:38.349Z,56.10
2019-03-22T05:07:20.271Z,56.20
2019-03-22T05:10:01.627Z,56.10
2019-03-22T05:12:42.750Z,56.10
2019-03-22T05:15:24.081Z,56.10
2019-03-22T05:18:05.612Z,56.10
2019-03-22T05:20:47.196Z,56.20
2019-03-22T05:23:28.073Z,56.20
2019-03-22T05:26:09.193Z,56.20
2019-03-22T05:28:50.521Z,56.20
2019-03-22T05:31:31.238Z,56.10
2019-03-22T05:34:12.428Z,56.20
2019-03-22T05:36:53.983Z,56.10
2019-03-22T05:39:35.124Z,56.10
2019-03-22T05:42:16.034Z,56.20
2019-03-22T05:44:56.967Z,56.10
2019-03-22T05:47:38.438Z,56.10
2019-03-22T05:50:20.092Z,56.20
2019-03-22T05:53:00.819Z,56.10
2019-03-22T05:55:42.234Z,56.10
2019-03-22T06:01:28.446Z,56.10
2019-03-22T06:10:21.363Z,56.10
2019-03-22T06:22:30.621Z,55.90
2019-03-22T06:25:12.049Z,55.90
2019-03-22T06:27:53.402Z,55.90
2019-03-22T06:30:34.316Z,55.70
2019-03-22T06:33:15.573Z,55.70
2019-03-22T06:35:56.960Z,55.70
2019-03-22T06:41:55.841Z,56.00
2019-03-22T06:44:37.199Z,55.50
2019-03-22T06:47:17.893Z,55.50
2019-03-22T06:50:18.260Z,55.30
2019-03-22T06:56:15.924Z,55.30
2019-03-22T07:05:19.494Z,55.40
2019-03-22T07:08:00.950Z,55.20
2019-03-22T07:10:42.417Z,55.30
2019-03-22T07:13:22.962Z,55.30
2019-03-22T07:16:03.763Z,55.20
2019-03-22T07:22:23.535Z,55.30
2019-03-22T07:25:04.224Z,55.30
2019-03-22T07:27:44.773Z,55.20
2019-03-22T07:30:26.305Z,55.20
2019-03-22T07:33:26.423Z,55.20
2019-03-22T07:36:07.682Z,55.20
2019-03-22T07:42:27.322Z,55.40
2019-03-22T07:45:07.421Z,55.30
2019-03-22T07:48:13.643Z,55.40
2019-03-22T07:51:00.324Z,55.40
2019-03-22T07:53:49.000Z,55.30
2019-03-22T07:56:55.093Z,55.40
2019-03-22T07:59:43.579Z,55.40
2019-03-22T08:02:32.077Z,55.30
2019-03-22T08:05:20.682Z,55.30
2019-03-22T08:08:09.242Z,55.30
2019-03-22T08:13:44.576Z,55.30
2019-03-22T08:16:26.164Z,55.30
2019-03-22T08:25:48.107Z,55.30
2019-03-22T08:31:32.332Z,55.50
2019-03-22T08:34:20.960Z,55.30
2019-03-22T08:37:09.580Z,55.30
2019-03-22T08:43:04.492Z,55.30
2019-03-22T08:45:53.119Z,55.30
2019-03-22T08:48:40.813Z,55.30
2019-03-22T08:52:05.988Z,55.40
2019-03-22T08:54:54.549Z,55.30
2019-03-22T08:57:43.031Z,55.30
2019-03-22T09:00:39.143Z,55.30
2019-03-22T09:03:21.964Z,55.40
2019-03-22T09:06:10.577Z,55.20
2019-03-22T09:08:59.245Z,55.20
2019-03-22T09:12:05.289Z,55.20
2019-03-22T09:24:19.118Z,55.20
2019-03-22T09:30:05.108Z,55.40
2019-03-22T09:32:46.096Z,55.30
2019-03-22T09:35:26.973Z,55.40
2019-03-22T09:38:12.752Z,55.30
2019-03-22T09:40:50.377Z,55.40
2019-03-22T09:43:31.311Z,55.30
2019-03-22T09:49:31.124Z,55.30
2019-03-22T09:52:12.664Z,55.30
2019-03-22T09:58:11.854Z,55.40
2019-03-22T10:01:00.401Z,55.50
2019-03-22T10:06:44.620Z,55.50
2019-03-22T10:09:50.587Z,55.40
2019-03-22T10:15:44.874Z,55.40
2019-03-22T10:18:36.659Z,55.40
2019-03-22T10:21:23.756Z,55.40
2019-03-22T10:24:31.668Z,55.40
2019-03-22T10:30:31.515Z,55.40
2019-03-22T10:33:22.873Z,55.40
2019-03-22T10:39:54.436Z,55.40
2019-03-22T10:42:44.618Z,55.40
2019-03-22T10:45:33.202Z,55.30
2019-03-22T10:48:21.903Z,55.40
2019-03-22T10:51:12.001Z,55.40
2019-03-22T10:59:31.592Z,55.40
2019-03-22T11:08:22.568Z,55.30
2019-03-22T11:11:11.111Z,55.30
2019-03-22T11:13:51.655Z,55.30
2019-03-22T11:19:29.590Z,55.30
2019-03-22T11:22:37.379Z,55.40
2019-03-22T11:25:27.614Z,55.40
2019-03-22T11:28:34.333Z,55.30
2019-03-22T11:34:09.891Z,55.30
2019-03-22T11:43:19.847Z,55.30
2019-03-22T11:46:08.400Z,55.30
2019-03-22T11:52:08.351Z,55.30
2019-03-22T11:55:14.365Z,55.30
2019-03-22T12:02:03.173Z,55.20
2019-03-22T12:04:50.490Z,55.20
2019-03-22T12:07:39.045Z,55.20
2019-03-22T12:10:27.838Z,55.20
2019-03-22T12:13:16.464Z,55.20
2019-03-22T12:16:22.427Z,55.10
2019-03-22T12:23:14.266Z,55.20
2019-03-22T12:26:20.274Z,55.00
2019-03-22T12:32:33.442Z,55.20
2019-03-22T12:35:21.792Z,55.20
2019-03-22T12:45:06.360Z,55.20
2019-03-22T12:51:34.217Z,55.20
2019-03-22T12:54:22.756Z,55.20
2019-03-22T12:57:11.600Z,55.20
2019-03-22T13:02:49.326Z,55.20
2019-03-22T13:05:55.690Z,55.10
2019-03-22T13:08:44.635Z,55.10
2019-03-22T13:12:08.223Z,55.10
2019-03-22T13:14:49.932Z,55.10
2019-03-22T13:17:49.916Z,55.10
2019-03-22T13:23:34.173Z,55.10
2019-03-22T13:26:23.108Z,55.10
2019-03-22T13:31:57.482Z,55.10
2019-03-22T13:38:25.700Z,55.10
2019-03-22T13:41:14.476Z,55.10
2019-03-22T13:44:02.984Z,55.10
2019-03-22T13:49:44.766Z,55.00
2019-03-22T13:52:32.980Z,55.10
2019-03-22T13:59:20.143Z,55.00
2019-03-22T14:02:10.421Z,55.10
2019-03-22T14:08:08.161Z,55.00
2019-03-22T14:10:56.711Z,55.10
2019-03-22T14:16:42.875Z,55.10
2019-03-22T14:19:24.417Z,55.20
2019-03-22T14:22:24.862Z,55.20
2019-03-22T14:25:06.408Z,55.20
2019-03-22T14:27:47.033Z,55.20
2019-03-22T14:30:27.943Z,55.20
2019-03-22T14:33:13.264Z,55.10
2019-03-22T14:35:51.442Z,55.30
2019-03-22T14:38:32.063Z,55.30
2019-03-22T14:41:13.026Z,55.30
2019-03-22T14:47:17.377Z,55.30
2019-03-22T14:49:58.795Z,55.30
2019-03-22T14:52:40.186Z,55.40
2019-03-22T14:55:21.231Z,55.30
2019-03-22T14:58:02.086Z,55.40
2019-03-22T15:04:21.082Z,55.40
2019-03-22T15:07:02.469Z,55.30
2019-03-22T15:16:27.953Z,55.50
2019-03-22T15:19:27.554Z,55.40
2019-03-22T15:25:36.388Z,55.50
2019-03-22T15:28:36.922Z,55.50
2019-03-22T15:31:36.955Z,54.20
2019-03-22T15:40:25.282Z,52.20
2019-03-22T15:43:06.167Z,52.90
2019-03-22T15:45:47.742Z,53.20
2019-03-22T15:51:37.310Z,53.50
2019-03-22T15:54:18.086Z,53.80
2019-03-22T16:03:24.379Z,54.10
2019-03-22T16:06:05.930Z,54.20
2019-03-22T16:08:46.708Z,55.00
2019-03-22T16:11:27.625Z,54.40
2019-03-22T16:14:08.273Z,54.40
2019-03-22T16:16:48.894Z,55.00
2019-03-22T16:19:30.160Z,54.60
2019-03-22T16:25:30.755Z,54.70
2019-03-22T16:28:12.148Z,54.80
2019-03-22T16:34:21.590Z,54.80
2019-03-22T16:37:21.060Z,54.90
2019-03-22T16:40:01.749Z,55.00
2019-03-22T16:48:54.413Z,55.00
2019-03-22T16:51:35.448Z,54.90
2019-03-22T16:54:16.031Z,55.00
2019-03-22T16:56:57.016Z,55.10
2019-03-22T17:02:45.998Z,55.10
2019-03-22T17:05:34.850Z,55.10
2019-03-22T17:17:04.382Z,55.30
2019-03-22T17:19:45.088Z,55.30
2019-03-22T17:22:26.282Z,55.30
2019-03-22T17:25:07.648Z,55.40
2019-03-22T17:27:49.015Z,55.30
2019-03-22T17:30:30.655Z,55.40
2019-03-22T17:33:12.231Z,55.30
2019-03-22T17:35:53.780Z,55.40
2019-03-22T17:38:35.361Z,55.40
2019-03-22T17:41:15.988Z,55.40
2019-03-22T17:43:56.748Z,55.40
2019-03-22T17:46:37.554Z,55.50
2019-03-22T17:49:18.843Z,55.50
2019-03-22T17:51:59.641Z,55.50
2019-03-22T17:54:40.460Z,55.50
2019-03-22T17:57:21.311Z,55.60
2019-03-22T18:03:05.272Z,55.60
2019-03-22T18:05:35.226Z,55.50
2019-03-22T18:08:24.090Z,55.60
2019-03-22T18:11:13.079Z,55.60
2019-03-22T18:13:54.059Z,55.60
2019-03-22T18:16:34.739Z,55.50
2019-03-22T18:25:42.890Z,55.70
2019-03-22T18:31:21.071Z,55.80
2019-03-22T18:34:09.934Z,55.80
2019-03-22T18:37:17.472Z,55.80
2019-03-22T18:43:15.025Z,55.70
2019-03-22T18:46:03.755Z,55.80
2019-03-22T18:52:17.538Z,55.80
2019-03-22T18:57:55.152Z,55.80
2019-03-22T19:01:02.735Z,55.80
2019-03-22T19:15:21.108Z,55.90
2019-03-22T19:18:01.822Z,55.90
2019-03-22T19:20:42.548Z,56.00
2019-03-22T19:26:31.977Z,55.90
2019-03-22T19:29:12.632Z,56.00
2019-03-22T19:31:54.341Z,56.00
2019-03-22T19:34:35.401Z,56.00
2019-03-22T19:37:16.724Z,56.00
2019-03-22T19:39:58.076Z,56.00
2019-03-22T19:42:39.577Z,56.00
2019-03-22T19:45:20.392Z,56.10
2019-03-22T19:48:02.037Z,56.00
2019-03-22T19:50:42.752Z,56.00
2019-03-22T19:53:23.611Z,55.90
2019-03-22T19:56:04.976Z,56.00
2019-03-22T19:58:45.691Z,56.00
2019-03-22T20:04:44.445Z,56.00
2019-03-22T20:13:54.997Z,56.00
2019-03-22T20:16:36.167Z,55.90
2019-03-22T20:19:17.010Z,56.00
2019-03-22T20:21:58.671Z,56.10
2019-03-22T20:24:39.413Z,56.10
2019-03-22T20:30:39.400Z,56.00
2019-03-22T20:33:20.810Z,56.10
2019-03-22T20:36:01.524Z,56.10
2019-03-22T20:38:42.438Z,56.10
2019-03-22T20:44:42.732Z,56.10
2019-03-22T20:47:24.003Z,56.20
2019-03-22T20:50:05.396Z,56.00
2019-03-22T20:56:03.269Z,56.10
2019-03-22T21:05:34.970Z,56.10
2019-03-22T21:15:00.309Z,56.70
2019-03-22T21:17:41.053Z,56.10
2019-03-22T21:20:21.799Z,56.10
2019-03-22T21:23:03.049Z,56.10
2019-03-22T21:25:43.654Z,56.10
2019-03-22T21:28:24.665Z,56.20
2019-03-22T21:31:24.250Z,56.20
2019-03-22T21:34:24.488Z,56.10
2019-03-22T21:37:05.390Z,56.20
2019-03-22T21:39:47.076Z,56.20
2019-03-22T21:42:28.328Z,56.10
2019-03-22T21:48:17.103Z,56.10
2019-03-22T21:51:05.724Z,56.10
2019-03-22T21:53:54.289Z,56.00
2019-03-22T22:00:10.702Z,56.70
2019-03-22T22:02:59.362Z,56.10
2019-03-22T22:05:48.297Z,56.10
2019-03-22T22:08:36.905Z,56.10
2019-03-22T22:11:25.468Z,56.10
2019-03-22T22:17:22.750Z,56.10
2019-03-22T22:23:00.647Z,56.10
2019-03-22T22:31:37.183Z,56.10
2019-03-22T22:43:21.569Z,56.10
2019-03-22T22:49:03.893Z,56.10
2019-03-22T22:52:12.614Z,56.10
2019-03-22T22:58:08.919Z,56.10
2019-03-22T23:00:57.468Z,56.10
2019-03-22T23:03:45.656Z,56.10
2019-03-22T23:06:55.087Z,56.10
2019-03-22T23:15:19.498Z,56.10
2019-03-22T23:23:57.051Z,56.10
2019-03-22T23:29:57.787Z,56.10
2019-03-22T23:32:46.371Z,56.10
2019-03-22T23:35:35.203Z,56.10
2019-03-22T23:41:54.318Z,56.10
2019-03-22T23:44:42.798Z,56.10
2019-03-22T23:47:32.129Z,56.10
2019-03-22T23:50:20.919Z,56.10
2019-03-22T23:56:03.887Z,56.10
2019-03-22T23:58:51.550Z,56.10
